Time;durP1;ratioP1;P1;durP2;ratioP2;P2;SDS_P1;SDS_P2;PMS_P1;PMS_P2;Temp;Humidity;BMP_temperature;BMP_pressure;BME280_temperature;BME280_humidity;BME280_pressure;Samples;Min_cycle;Max_cycle;Signal;HPM_P1;HPM_P2
2021/12/28 00:02:23;;;;;;;4.38;1.02;;;;;;;9.55;100.00;98370.97;5065921;28;20015;-73
2021/12/28 00:04:48;;;;;;;3.83;0.90;;;;;;;9.52;100.00;98370.84;5079111;28;20102;-72
2021/12/28 00:07:14;;;;;;;3.45;0.80;;;;;;;9.50;100.00;98382.28;5089762;28;20059;-72
2021/12/28 00:09:39;;;;;;;3.88;1.10;;;;;;;9.47;100.00;98385.75;5078930;28;20361;-72
2021/12/28 00:12:05;;;;;;;4.00;1.00;;;;;;;9.45;100.00;98393.56;5068455;28;20031;-73
2021/12/28 00:14:36;;;;;;;5.10;0.98;;;;;;;9.40;100.00;98405.66;5056439;28;20161;-72
2021/12/28 00:19:46;;;;;;;4.78;1.08;;;;;;;9.36;100.00;98407.50;5089638;28;20089;-72
2021/12/28 00:22:11;;;;;;;6.20;1.15;;;;;;;9.33;100.00;98410.09;5082821;28;20047;-72
2021/12/28 00:24:37;;;;;;;5.57;1.17;;;;;;;9.31;100.00;98410.47;5071182;28;20031;-72
2021/12/28 00:27:04;;;;;;;2.95;0.82;;;;;;;9.30;100.00;98410.78;5094592;28;20442;-72
2021/12/28 00:29:29;;;;;;;5.57;1.15;;;;;;;9.28;100.00;98404.78;5083089;28;20056;-72
2021/12/28 00:31:55;;;;;;;6.13;1.40;;;;;;;9.27;100.00;98409.50;5082469;28;20027;-72
2021/12/28 00:34:20;;;;;;;5.80;1.20;;;;;;;9.25;100.00;98408.22;5077744;28;20647;-72
2021/12/28 00:36:46;;;;;;;4.82;1.10;;;;;;;9.24;100.00;98420.44;5067142;28;20023;-72
2021/12/28 00:39:12;;;;;;;7.32;1.15;;;;;;;9.24;100.00;98426.00;5095086;28;20027;-72
2021/12/28 00:41:37;;;;;;;3.88;1.05;;;;;;;9.22;100.00;98422.72;5051199;28;20062;-72
2021/12/28 00:44:03;;;;;;;10.98;1.60;;;;;;;9.18;100.00;98428.94;5098674;28;20054;-72
2021/12/28 00:46:29;;;;;;;5.68;0.98;;;;;;;9.19;100.00;98435.28;5084459;28;20066;-72
2021/12/28 00:48:54;;;;;;;5.72;1.30;;;;;;;9.18;100.00;98444.75;5100991;28;20040;-72
2021/12/28 00:51:20;;;;;;;5.00;1.48;;;;;;;9.15;100.00;98448.19;5087006;28;20046;-72
2021/12/28 00:53:45;;;;;;;7.68;1.35;;;;;;;9.11;100.00;98453.59;5066038;28;20024;-72
2021/12/28 00:56:11;;;;;;;5.47;1.20;;;;;;;9.07;100.00;98458.19;5069961;28;20028;-72
2021/12/28 00:58:37;;;;;;;7.57;1.38;;;;;;;9.05;100.00;98465.19;5049149;28;20053;-72
2021/12/28 01:01:03;;;;;;;8.38;1.50;;;;;;;9.03;100.00;98459.19;5105399;28;20027;-72
2021/12/28 01:03:29;;;;;;;8.00;1.15;;;;;;;8.97;100.00;98468.81;5087862;28;20032;-72
2021/12/28 01:05:55;;;;;;;7.88;1.38;;;;;;;8.94;100.00;98462.81;5092831;28;20103;-72
2021/12/28 01:08:20;;;;;;;7.97;1.13;;;;;;;8.93;100.00;98465.91;5048919;28;20038;-72
2021/12/28 01:10:48;;;;;;;7.70;1.40;;;;;;;8.91;100.00;98470.97;5078060;28;20036;-72
2021/12/28 01:13:14;;;;;;;7.13;1.38;;;;;;;8.86;100.00;98471.13;5061893;28;20131;-73
2021/12/28 01:15:39;;;;;;;8.80;1.58;;;;;;;8.83;100.00;98477.34;5084327;28;20471;-72
2021/12/28 01:18:05;;;;;;;7.88;1.48;;;;;;;8.76;100.00;98490.91;5101768;28;20039;-72
2021/12/28 01:20:31;;;;;;;7.72;1.70;;;;;;;8.73;100.00;98504.25;5084458;28;20016;-72
2021/12/28 01:22:56;;;;;;;8.25;1.73;;;;;;;8.71;100.00;98505.72;5097957;28;20047;-72
2021/12/28 01:25:23;;;;;;;6.53;1.38;;;;;;;8.70;100.00;98507.69;5072524;28;20044;-72
2021/12/28 01:27:49;;;;;;;6.28;1.55;;;;;;;8.69;100.00;98519.06;5085487;28;20032;-72
2021/12/28 01:30:14;;;;;;;6.88;0.90;;;;;;;8.67;100.00;98508.34;5061346;28;20048;-72
2021/12/28 01:32:40;;;;;;;7.50;1.38;;;;;;;8.66;100.00;98520.56;5082299;28;20126;-72
2021/12/28 01:35:07;;;;;;;6.47;1.50;;;;;;;8.64;100.00;98520.06;5065172;28;20042;-72
2021/12/28 01:37:32;;;;;;;7.97;1.58;;;;;;;8.64;100.00;98531.13;5048456;28;20024;-72
2021/12/28 01:39:58;;;;;;;7.95;1.42;;;;;;;8.62;100.00;98536.19;5078201;28;20023;-72
2021/12/28 01:42:24;;;;;;;9.88;1.65;;;;;;;8.61;100.00;98542.88;5048713;28;20028;-72
2021/12/28 01:44:50;;;;;;;7.53;1.38;;;;;;;8.62;100.00;98555.56;5081518;28;20034;-73
2021/12/28 01:47:16;;;;;;;6.97;1.33;;;;;;;8.62;100.00;98557.50;5061442;28;20388;-72
2021/12/28 01:49:42;;;;;;;7.45;1.90;;;;;;;8.61;100.00;98565.00;5084766;28;20044;-73
2021/12/28 01:52:08;;;;;;;7.70;1.20;;;;;;;8.62;100.00;98560.28;5096432;28;20030;-72
2021/12/28 01:54:33;;;;;;;7.68;1.08;;;;;;;8.64;100.00;98546.94;5064922;28;20032;-72
2021/12/28 01:56:59;;;;;;;7.63;1.40;;;;;;;8.64;100.00;98555.25;5078724;28;20028;-72
2021/12/28 01:59:24;;;;;;;9.73;2.20;;;;;;;8.63;100.00;98557.16;5076646;28;20028;-72
2021/12/28 02:01:50;;;;;;;7.30;1.40;;;;;;;8.64;100.00;98567.13;5065843;28;20023;-72
2021/12/28 02:04:20;;;;;;;5.78;1.42;;;;;;;8.64;100.00;98574.59;5081332;28;20036;-72
2021/12/28 02:06:45;;;;;;;6.18;0.90;;;;;;;8.63;100.00;98584.84;5070796;28;20043;-72
2021/12/28 02:09:11;;;;;;;7.22;1.58;;;;;;;8.64;100.00;98592.03;5080378;28;20555;-72
2021/12/28 02:11:36;;;;;;;8.90;1.50;;;;;;;8.62;100.00;98613.66;5080699;28;20048;-72
2021/12/28 02:14:05;;;;;;;6.28;1.30;;;;;;;8.63;100.00;98618.03;5067134;28;20054;-72
2021/12/28 02:16:31;;;;;;;9.43;1.42;;;;;;;8.61;100.00;98628.66;5100888;28;20027;-72
2021/12/28 02:18:56;;;;;;;9.70;1.40;;;;;;;8.60;100.00;98640.03;5091311;28;20039;-72
2021/12/28 02:21:21;;;;;;;9.82;1.48;;;;;;;8.59;100.00;98635.66;5098084;28;20515;-72
2021/12/28 02:23:47;;;;;;;8.05;1.30;;;;;;;8.57;100.00;98638.72;5055922;28;20027;-72
2021/12/28 02:26:12;;;;;;;12.05;1.70;;;;;;;8.56;100.00;98639.06;5073884;28;20035;-72
2021/12/28 02:28:38;;;;;;;12.30;2.00;;;;;;;8.55;100.00;98642.97;5082278;28;20380;-73
2021/12/28 02:31:03;;;;;;;11.52;2.15;;;;;;;8.54;100.00;98642.16;5052945;28;20046;-72
2021/12/28 02:33:29;;;;;;;9.60;1.42;;;;;;;8.51;100.00;98640.03;5071835;27;20085;-72
2021/12/28 02:35:58;;;;;;;6.97;1.50;;;;;;;8.48;100.00;98644.25;5083032;28;20027;-72
2021/12/28 02:38:24;;;;;;;11.70;1.83;;;;;;;8.47;100.00;98655.69;5086494;28;20031;-72
2021/12/28 02:40:49;;;;;;;7.82;1.20;;;;;;;8.45;100.00;98657.94;5056440;27;20519;-72
2021/12/28 02:43:15;;;;;;;8.35;1.60;;;;;;;8.43;100.00;98671.28;5069940;27;20023;-73
2021/12/28 02:45:53;;;;;;;12.45;2.05;;;;;;;8.40;100.00;98678.28;5082060;27;20054;-72
2021/12/28 02:48:18;;;;;;;8.75;1.95;;;;;;;8.37;100.00;98678.91;5043602;28;20028;-73
2021/12/28 02:50:48;;;;;;;12.27;1.98;;;;;;;8.35;100.00;98686.69;5064866;28;20093;-72
2021/12/28 02:53:13;;;;;;;11.55;1.85;;;;;;;8.33;100.00;98686.22;5065427;28;20035;-72
2021/12/28 02:55:39;;;;;;;9.00;1.65;;;;;;;8.31;100.00;98680.19;5089641;27;20083;-72
2021/12/28 02:58:35;;;;;;;9.55;1.80;;;;;;;8.30;100.00;98681.31;5087276;28;20027;-72
2021/12/28 03:01:15;;;;;;;11.30;1.90;;;;;;;8.28;100.00;98684.41;5067521;28;20031;-72
2021/12/28 03:03:42;;;;;;;8.82;1.77;;;;;;;8.28;100.00;98684.41;5043927;28;20024;-72
2021/12/28 03:06:09;;;;;;;9.98;1.83;;;;;;;8.27;100.00;98681.97;5060285;27;20027;-72
2021/12/28 03:08:38;;;;;;;23.40;2.40;;;;;;;8.26;100.00;98683.91;5080302;28;20384;-73
2021/12/28 03:11:04;;;;;;;9.90;1.60;;;;;;;8.27;100.00;98680.03;5063166;28;20028;-72
2021/12/28 03:13:37;;;;;;;20.30;2.03;;;;;;;8.26;100.00;98681.16;5067182;28;20049;-72
2021/12/28 03:16:04;;;;;;;12.98;1.80;;;;;;;8.26;100.00;98678.38;5061233;28;20069;-72
2021/12/28 03:18:29;;;;;;;10.70;1.67;;;;;;;8.28;100.00;98684.41;5065390;28;20040;-72
2021/12/28 03:20:55;;;;;;;16.02;2.20;;;;;;;8.29;100.00;98685.22;5069139;28;20572;-72
2021/12/28 03:23:21;;;;;;;8.50;1.77;;;;;;;8.31;100.00;98695.97;5036632;28;20039;-72
2021/12/28 03:25:47;;;;;;;11.82;1.77;;;;;;;8.31;100.00;98691.25;5079227;28;20035;-72
2021/12/28 03:28:32;;;;;;;15.30;1.77;;;;;;;8.34;100.00;98700.88;5080075;28;20035;-72
2021/12/28 03:31:00;;;;;;;16.38;2.25;;;;;;;8.36;100.00;98695.78;5039721;28;20044;-72
2021/12/28 03:33:27;;;;;;;11.25;2.05;;;;;;;8.37;100.00;98701.03;5058819;28;20032;-72
2021/12/28 03:35:52;;;;;;;15.90;2.35;;;;;;;8.39;100.00;98695.22;5061378;28;20419;-72
2021/12/28 03:38:18;;;;;;;7.22;1.58;;;;;;;8.42;100.00;98702.84;5042337;28;20085;-72
2021/12/28 03:40:44;;;;;;;10.60;2.03;;;;;;;8.44;100.00;98708.84;5044831;28;20476;-72
2021/12/28 03:43:10;;;;;;;11.68;1.85;;;;;;;8.45;100.00;98697.47;5049786;28;20396;-72
2021/12/28 03:45:35;;;;;;;12.63;2.55;;;;;;;8.47;100.00;98705.47;5072071;28;20471;-72
2021/12/28 03:48:01;;;;;;;11.73;1.75;;;;;;;8.50;100.00;98713.13;5048347;28;20449;-72
2021/12/28 03:50:26;;;;;;;14.40;1.90;;;;;;;8.51;100.00;98723.03;5052185;28;20037;-72
2021/12/28 03:52:53;;;;;;;10.88;1.90;;;;;;;8.55;100.00;98714.91;5060240;28;20032;-72
2021/12/28 03:55:19;;;;;;;11.85;2.22;;;;;;;8.56;100.00;98711.81;5067049;28;20082;-72
2021/12/28 03:57:45;;;;;;;9.55;1.70;;;;;;;8.59;100.00;98708.41;5061389;28;20032;-72
2021/12/28 04:00:12;;;;;;;14.63;1.70;;;;;;;8.62;100.00;98724.34;5059080;28;20024;-73
2021/12/28 04:02:38;;;;;;;16.70;2.55;;;;;;;8.64;100.00;98722.06;5052304;28;20040;-72
2021/12/28 04:05:04;;;;;;;14.15;1.83;;;;;;;8.66;100.00;98719.81;5065904;28;20043;-72
2021/12/28 04:07:30;;;;;;;17.13;3.28;;;;;;;8.70;100.00;98725.50;5031306;28;20481;-72
2021/12/28 04:12:21;;;;;;;11.93;2.60;;;;;;;8.74;100.00;98715.41;5061743;28;20019;-72
2021/12/28 04:14:47;;;;;;;14.85;2.58;;;;;;;8.76;100.00;98715.09;5031163;28;20028;-72
2021/12/28 04:17:12;;;;;;;9.85;2.05;;;;;;;8.77;100.00;98716.69;5068440;28;20027;-72
2021/12/28 04:19:38;;;;;;;10.73;2.17;;;;;;;8.78;100.00;98715.56;5051587;28;20396;-72
2021/12/28 04:22:03;;;;;;;14.57;2.60;;;;;;;8.79;100.00;98715.22;5021686;28;20040;-72
2021/12/28 04:24:29;;;;;;;17.52;2.65;;;;;;;8.79;100.00;98718.00;5061606;28;20031;-72
2021/12/28 04:26:55;;;;;;;13.55;3.03;;;;;;;8.80;100.00;98721.56;5063370;28;20035;-72
2021/12/28 04:29:20;;;;;;;11.98;1.95;;;;;;;8.81;100.00;98735.09;5070232;28;20055;-72
2021/12/28 04:31:46;;;;;;;13.60;1.98;;;;;;;8.80;100.00;98727.94;5085920;28;20035;-72
2021/12/28 04:34:11;;;;;;;8.50;2.10;;;;;;;8.81;100.00;98734.31;5078485;28;20028;-72
2021/12/28 04:36:37;;;;;;;11.68;2.05;;;;;;;8.82;100.00;98731.19;5066182;28;20028;-72
2021/12/28 04:39:03;;;;;;;10.60;2.30;;;;;;;8.82;100.00;98730.38;5048860;28;20790;-72
2021/12/28 04:41:30;;;;;;;14.63;2.20;;;;;;;8.84;100.00;98739.19;5056999;28;20025;-72
2021/12/28 04:43:55;;;;;;;13.00;2.25;;;;;;;8.84;100.00;98728.91;5066586;28;20039;-73
2021/12/28 04:46:21;;;;;;;13.43;1.92;;;;;;;8.84;100.00;98728.09;5086285;28;20040;-72
2021/12/28 04:48:46;;;;;;;19.58;2.30;;;;;;;8.84;100.00;98728.91;5061736;28;20028;-72
2021/12/28 04:51:12;;;;;;;16.42;2.15;;;;;;;8.86;100.00;98731.34;5081702;28;20020;-72
2021/12/28 04:53:37;;;;;;;13.48;2.30;;;;;;;8.87;100.00;98735.75;5059929;28;20023;-72
2021/12/28 04:56:03;;;;;;;12.82;2.22;;;;;;;8.88;100.00;98740.16;5068841;28;20032;-72
2021/12/28 04:58:29;;;;;;;15.38;2.22;;;;;;;8.90;100.00;98748.94;5049485;28;20039;-72
2021/12/28 05:00:54;;;;;;;15.07;2.28;;;;;;;8.90;100.00;98749.75;5064111;28;20021;-72
2021/12/28 05:03:20;;;;;;;9.77;1.95;;;;;;;8.93;100.00;98759.38;5066370;28;20514;-72
2021/12/28 05:05:50;;;;;;;12.35;2.00;;;;;;;8.94;100.00;98760.97;5038299;28;20036;-73
2021/12/28 05:08:16;;;;;;;15.93;2.38;;;;;;;8.95;100.00;98762.63;5057309;28;20044;-72
2021/12/28 05:10:42;;;;;;;8.98;1.70;;;;;;;8.98;100.00;98777.78;5062960;28;20027;-72
2021/12/28 05:13:07;;;;;;;17.73;2.55;;;;;;;8.98;100.00;98784.13;5067033;28;20028;-72
2021/12/28 05:15:33;;;;;;;11.00;2.10;;;;;;;9.01;100.00;98777.94;5080720;28;20035;-72
2021/12/28 05:17:58;;;;;;;8.68;1.73;;;;;;;9.02;100.00;98773.19;5056766;28;20063;-72
2021/12/28 05:20:24;;;;;;;8.27;1.45;;;;;;;9.03;100.00;98775.66;5097874;28;20036;-73
2021/12/28 05:22:49;;;;;;;11.65;2.22;;;;;;;9.05;100.00;98778.91;5049647;28;20032;-72
2021/12/28 05:25:15;;;;;;;5.50;1.30;;;;;;;9.08;100.00;98794.88;5061994;28;20028;-72
2021/12/28 05:27:41;;;;;;;9.90;1.88;;;;;;;9.10;100.00;98786.25;5055009;28;20039;-72
2021/12/28 05:30:07;;;;;;;8.68;1.50;;;;;;;9.12;100.00;98804.16;5070702;28;20056;-72
2021/12/28 05:32:33;;;;;;;5.57;1.50;;;;;;;9.14;100.00;98814.94;5063638;28;20028;-72
2021/12/28 05:34:58;;;;;;;6.88;1.52;;;;;;;9.16;100.00;98810.69;5079193;28;20028;-73
2021/12/28 05:37:24;;;;;;;7.50;1.65;;;;;;;9.18;100.00;98816.69;5065354;28;20115;-72
2021/12/28 05:39:49;;;;;;;5.07;1.20;;;;;;;9.22;100.00;98810.50;5080103;28;20066;-73
2021/12/28 05:42:15;;;;;;;7.30;1.30;;;;;;;9.23;100.00;98809.38;5068335;28;20033;-73
2021/12/28 05:44:41;;;;;;;6.78;1.73;;;;;;;9.23;100.00;98807.41;5069513;28;20036;-74
2021/12/28 05:47:07;;;;;;;6.55;1.50;;;;;;;9.28;100.00;98806.44;5085423;28;20028;-72
2021/12/28 05:49:32;;;;;;;5.75;1.02;;;;;;;9.32;100.00;98816.53;5077939;28;20016;-72
2021/12/28 05:51:58;;;;;;;5.75;1.25;;;;;;;9.30;100.00;98818.00;5096258;28;20035;-72
2021/12/28 05:54:23;;;;;;;7.30;1.23;;;;;;;9.35;100.00;98829.72;5063432;28;20032;-72
2021/12/28 05:56:49;;;;;;;6.88;1.15;;;;;;;9.33;100.00;98843.13;5070111;28;20031;-72
2021/12/28 05:59:14;;;;;;;4.80;1.20;;;;;;;9.34;100.00;98843.91;5107121;28;20028;-72
2021/12/28 06:01:40;;;;;;;7.95;1.85;;;;;;;9.37;100.00;98846.03;5060588;28;20028;-72
2021/12/28 06:04:07;;;;;;;7.55;1.35;;;;;;;9.38;100.00;98864.28;5068144;28;20032;-72
2021/12/28 06:06:32;;;;;;;5.38;1.20;;;;;;;9.37;100.00;98874.56;5049861;28;20383;-72
2021/12/28 06:08:58;;;;;;;8.68;1.33;;;;;;;9.38;100.00;98875.34;5078315;28;20027;-72
2021/12/28 06:11:24;;;;;;;8.98;1.33;;;;;;;9.38;100.00;98881.72;5061160;28;20490;-72
2021/12/28 06:13:49;;;;;;;10.18;1.80;;;;;;;9.37;100.00;98885.63;5072533;28;20031;-72
2021/12/28 06:16:15;;;;;;;6.75;1.30;;;;;;;9.36;100.00;98888.72;5067878;28;20027;-72
2021/12/28 06:18:40;;;;;;;11.40;1.83;;;;;;;9.36;100.00;98883.16;5083339;28;20043;-72
2021/12/28 06:21:06;;;;;;;10.95;1.73;;;;;;;9.34;100.00;98894.59;5062210;28;20030;-72
2021/12/28 06:23:31;;;;;;;8.77;2.00;;;;;;;9.35;100.00;98903.72;5075174;28;20070;-72
2021/12/28 06:25:57;;;;;;;8.73;1.70;;;;;;;9.34;100.00;98893.78;5068498;28;20149;-72
2021/12/28 06:28:22;;;;;;;11.45;1.67;;;;;;;9.34;100.00;98902.91;5048351;28;20396;-73
2021/12/28 06:30:48;;;;;;;8.50;1.48;;;;;;;9.32;100.00;98901.59;5080507;27;20035;-72
2021/12/28 06:33:13;;;;;;;13.23;2.03;;;;;;;9.32;100.00;98898.84;5055394;27;20115;-72
2021/12/28 06:35:39;;;;;;;8.48;1.38;;;;;;;9.30;100.00;98903.88;5069576;28;20085;-72
2021/12/28 06:38:05;;;;;;;11.85;1.77;;;;;;;9.29;100.00;98905.84;5079266;27;20076;-72
2021/12/28 06:40:30;;;;;;;12.20;1.92;;;;;;;9.28;100.00;98904.22;5064779;28;20081;-72
2021/12/28 06:42:55;;;;;;;8.73;1.77;;;;;;;9.28;100.00;98906.19;5069153;28;20032;-72
2021/12/28 06:45:21;;;;;;;13.25;2.15;;;;;;;9.27;100.00;98907.28;5066068;28;20063;-72
2021/12/28 06:47:47;;;;;;;10.52;1.63;;;;;;;9.25;100.00;98917.88;5064751;28;20080;-72
2021/12/28 06:50:12;;;;;;;19.17;2.92;;;;;;;9.25;100.00;98915.09;5077750;28;20031;-72
2021/12/28 06:52:38;;;;;;;17.65;2.92;;;;;;;9.24;100.00;98924.56;5048281;28;20373;-72
2021/12/28 06:55:05;;;;;;;14.65;2.50;;;;;;;9.22;100.00;98926.84;5063969;28;20051;-72
2021/12/28 06:57:30;;;;;;;18.00;2.55;;;;;;;9.23;100.00;98928.50;5082996;27;20039;-72
2021/12/28 06:59:56;;;;;;;24.55;3.47;;;;;;;9.21;100.00;98947.38;5108444;28;20026;-71
2021/12/28 07:02:21;;;;;;;19.50;2.80;;;;;;;9.17;100.00;98948.03;5081725;28;20077;-72
2021/12/28 07:04:47;;;;;;;22.73;3.63;;;;;;;9.18;100.00;98943.28;5047682;28;20534;-72
2021/12/28 07:07:12;;;;;;;28.08;4.18;;;;;;;9.17;100.00;98948.03;5052492;28;20115;-72
2021/12/28 07:09:38;;;;;;;32.08;3.85;;;;;;;9.17;100.00;98953.56;5084577;27;20127;-72
2021/12/28 07:12:04;;;;;;;24.58;3.83;;;;;;;9.16;100.00;98956.66;5068675;28;20035;-72
2021/12/28 07:14:29;;;;;;;37.15;4.85;;;;;;;9.14;100.00;98976.38;5102233;28;20031;-72
2021/12/28 07:16:55;;;;;;;29.73;3.85;;;;;;;9.12;100.00;98981.41;5056311;28;20669;-72
2021/12/28 07:19:21;;;;;;;34.05;4.78;;;;;;;9.12;100.00;98991.69;5069224;28;20471;-72
2021/12/28 07:21:46;;;;;;;31.50;4.38;;;;;;;9.10;100.00;99003.06;5099754;27;20031;-72
2021/12/28 07:24:13;;;;;;;43.25;5.95;;;;;;;9.09;100.00;99001.44;5100739;27;20031;-72
2021/12/28 07:26:39;;;;;;;36.92;5.25;;;;;;;9.07;100.00;98998.16;5071157;28;20034;-72
2021/12/28 07:29:04;;;;;;;36.40;5.28;;;;;;;9.08;100.00;98998.97;5064533;28;20052;-72
2021/12/28 07:31:32;;;;;;;40.88;4.55;;;;;;;9.05;100.00;99000.44;5067765;28;20035;-71
2021/12/28 07:33:57;;;;;;;43.17;5.95;;;;;;;9.06;100.00;99002.09;5088079;28;20035;-72
2021/12/28 07:36:23;;;;;;;53.45;5.75;;;;;;;9.04;100.00;99004.34;5097413;28;20034;-72
2021/12/28 07:38:48;;;;;;;34.92;5.57;;;;;;;9.04;100.00;99004.34;5107730;28;20024;-72
2021/12/28 07:41:14;;;;;;;31.95;4.97;;;;;;;9.02;100.00;99006.63;5098027;28;20044;-72
2021/12/28 07:43:39;;;;;;;39.38;4.72;;;;;;;9.01;100.00;99005.00;5064941;28;20047;-72
2021/12/28 07:46:05;;;;;;;34.22;5.20;;;;;;;9.02;100.00;99014.13;5096934;28;20020;-72
2021/12/28 07:48:30;;;;;;;40.70;5.50;;;;;;;9.01;100.00;99015.25;5078999;28;20077;-72
2021/12/28 07:50:56;;;;;;;48.05;6.35;;;;;;;8.95;100.00;99017.34;5066402;28;20030;-72
2021/12/28 07:53:21;;;;;;;33.70;4.75;;;;;;;8.96;100.00;99024.50;5091162;28;20118;-72
2021/12/28 07:55:47;;;;;;;51.28;6.20;;;;;;;8.96;100.00;99030.06;5074472;28;20036;-72
2021/12/28 07:58:12;;;;;;;39.60;5.43;;;;;;;8.96;100.00;99038.38;5057664;28;20031;-72
2021/12/28 08:00:38;;;;;;;36.60;5.22;;;;;;;8.94;100.00;99048.94;5047006;28;20021;-72
2021/12/28 08:03:04;;;;;;;38.38;6.13;;;;;;;8.93;100.00;99050.06;5073715;28;20043;-71
2021/12/28 08:05:34;;;;;;;44.33;5.88;;;;;;;8.93;100.00;99055.63;5063481;28;20464;-72
2021/12/28 08:07:59;;;;;;;37.72;4.90;;;;;;;8.92;100.00;99062.31;5046482;28;20027;-72
2021/12/28 08:10:25;;;;;;;50.95;6.03;;;;;;;8.90;100.00;99059.84;5063376;28;20107;-71
2021/12/28 08:12:51;;;;;;;42.67;5.95;;;;;;;8.90;100.00;99064.56;5080549;28;20349;-72
2021/12/28 08:15:17;;;;;;;45.33;6.32;;;;;;;8.88;100.00;99073.16;5056447;28;20024;-71
2021/12/28 08:17:43;;;;;;;39.78;6.05;;;;;;;8.88;100.00;99072.34;5086020;28;20481;-71
2021/12/28 08:20:09;;;;;;;36.90;6.32;;;;;;;8.88;100.00;99077.91;5106598;28;20016;-71
2021/12/28 08:22:35;;;;;;;40.83;6.30;;;;;;;8.88;100.00;99086.19;5060919;28;20051;-71
2021/12/28 08:25:01;;;;;;;45.97;6.53;;;;;;;8.85;100.00;99079.34;5063497;28;20429;-71
2021/12/28 08:27:27;;;;;;;42.75;5.80;;;;;;;8.85;100.00;99075.75;5106945;28;20566;-71
2021/12/28 08:29:52;;;;;;;41.55;6.90;;;;;;;8.86;100.00;99088.47;5088680;28;20040;-71
2021/12/28 08:32:18;;;;;;;59.05;6.95;;;;;;;8.83;100.00;99089.09;5076353;28;20039;-72
2021/12/28 08:34:43;;;;;;;40.70;5.68;;;;;;;8.83;100.00;99086.34;5096504;28;20051;-72
2021/12/28 08:37:09;;;;;;;52.25;7.63;;;;;;;8.80;100.00;99098.03;5071837;27;20036;-72
2021/12/28 08:39:35;;;;;;;37.13;4.88;;;;;;;8.82;100.00;99087.47;5071706;27;20105;-72
2021/12/28 08:42:00;;;;;;;33.53;5.95;;;;;;;8.81;100.00;99105.22;5068342;28;20027;-72
2021/12/28 08:44:29;;;;;;;40.60;6.13;;;;;;;8.80;100.00;99114.66;5089433;27;20023;-71
2021/12/28 08:46:55;;;;;;;37.33;5.50;;;;;;;8.79;100.00;99108.31;5078974;27;20445;-72
2021/12/28 08:49:21;;;;;;;36.22;5.72;;;;;;;8.78;100.00;99117.75;5101951;28;20027;-72
2021/12/28 08:51:46;;;;;;;37.35;5.18;;;;;;;8.79;100.00;99127.69;5112934;28;20591;-71
2021/12/28 08:54:12;;;;;;;55.13;7.07;;;;;;;8.78;100.00;99131.59;5099986;28;20035;-71
2021/12/28 08:56:37;;;;;;;44.85;6.22;;;;;;;8.78;100.00;99101.16;5082716;28;20499;-71
2021/12/28 08:59:03;;;;;;;42.08;6.32;;;;;;;8.82;100.00;99106.84;5113561;28;20085;-71
2021/12/28 09:01:28;;;;;;;50.90;7.03;;;;;;;8.82;100.00;99112.41;5051828;28;20073;-72
2021/12/28 09:03:54;;;;;;;53.75;6.90;;;;;;;8.83;100.00;99108.47;5083020;28;20099;-72
2021/12/28 09:06:20;;;;;;;45.63;5.43;;;;;;;8.85;100.00;99117.28;5082590;28;20080;-72
2021/12/28 09:08:45;;;;;;;41.30;6.15;;;;;;;8.85;100.00;99134.72;5051100;28;20027;-71
2021/12/28 09:11:11;;;;;;;46.75;6.38;;;;;;;8.88;100.00;99149.88;5066415;28;20050;-72
2021/12/28 09:13:37;;;;;;;49.00;6.72;;;;;;;8.88;100.00;99145.16;5074955;28;20027;-72
2021/12/28 09:16:03;;;;;;;46.05;6.10;;;;;;;8.91;100.00;99143.72;5092812;28;20027;-72
2021/12/28 09:18:29;;;;;;;47.53;6.63;;;;;;;8.92;100.00;99134.28;5077322;28;20056;-71
2021/12/28 09:20:56;;;;;;;50.92;6.50;;;;;;;8.92;100.00;99129.56;5078977;28;20024;-71
2021/12/28 09:23:21;;;;;;;48.60;6.75;;;;;;;8.97;100.00;99130.56;5068393;28;20449;-71
2021/12/28 09:25:47;;;;;;;47.60;6.68;;;;;;;8.97;100.00;99145.25;5078720;28;20105;-71
2021/12/28 09:28:12;;;;;;;51.95;7.93;;;;;;;9.01;100.00;99148.19;5077362;28;20020;-72
2021/12/28 09:30:38;;;;;;;41.47;6.55;;;;;;;9.03;100.00;99143.16;5081185;27;20063;-72
2021/12/28 09:33:04;;;;;;;57.83;9.02;;;;;;;9.06;100.00;99139.75;5077711;27;20097;-71
2021/12/28 09:35:29;;;;;;;45.90;6.35;;;;;;;9.07;100.00;99147.72;5091291;28;20031;-71
2021/12/28 09:37:55;;;;;;;46.40;6.93;;;;;;;9.08;100.00;99154.91;5102574;27;20041;-70
2021/12/28 09:40:20;;;;;;;41.80;6.88;;;;;;;9.12;100.00;99166.16;5100750;28;20479;-71
2021/12/28 09:42:46;;;;;;;56.65;6.10;;;;;;;9.14;100.00;99164.72;5099304;28;20964;-71
2021/12/28 09:45:12;;;;;;;50.88;7.22;;;;;;;9.15;100.00;99160.81;5070090;28;20396;-71
2021/12/28 09:47:38;;;;;;;53.17;6.90;;;;;;;9.20;100.00;99164.59;5079863;28;20104;-71
2021/12/28 09:50:04;;;;;;;50.08;6.50;;;;;;;9.22;100.00;99174.22;5103488;27;20031;-71
2021/12/28 09:52:30;;;;;;;59.40;7.10;;;;;;;9.25;100.00;99189.34;5093073;28;20028;-72
2021/12/28 09:54:55;;;;;;;64.85;8.15;;;;;;;9.27;100.00;99187.09;5098429;27;20032;-72
2021/12/28 09:57:22;;;;;;;51.75;6.97;;;;;;;9.31;100.00;99185.34;5067588;28;20035;-71
2021/12/28 09:59:47;;;;;;;59.13;7.88;;;;;;;9.36;100.00;99182.41;5050502;28;20061;-72
2021/12/28 10:02:13;;;;;;;66.13;7.82;;;;;;;9.40;100.00;99197.28;5092976;28;20106;-72
2021/12/28 10:05:12;;;;;;;62.30;7.78;;;;;;;9.43;100.00;99199.41;5111937;28;20051;-71
2021/12/28 10:07:45;;;;;;;67.40;7.70;;;;;;;9.46;100.00;99197.97;5057147;28;20043;-72
2021/12/28 10:10:10;;;;;;;59.50;8.07;;;;;;;9.48;100.00;99190.16;5074406;27;20051;-72
2021/12/28 10:12:41;;;;;;;60.90;7.32;;;;;;;9.49;100.00;99181.50;5079474;28;20027;-72
2021/12/28 10:15:12;;;;;;;57.35;8.15;;;;;;;9.51;100.00;99201.41;5056303;28;20480;-72
2021/12/28 10:17:38;;;;;;;56.13;9.02;;;;;;;9.54;100.00;99211.03;5081631;28;20471;-72
2021/12/28 10:20:13;;;;;;;52.83;7.50;;;;;;;9.55;100.00;99215.44;5097261;28;20089;-72
2021/12/28 10:22:46;;;;;;;56.08;7.43;;;;;;;9.58;100.00;99220.34;5056563;27;20476;-72
2021/12/28 10:25:16;;;;;;;61.78;8.52;;;;;;;9.58;100.00;99217.56;5062696;28;20049;-72
2021/12/28 10:27:46;;;;;;;68.18;8.32;;;;;;;9.59;100.00;99219.22;5094447;28;20024;-72
2021/12/28 10:30:41;;;;;;;61.85;8.27;;;;;;;9.60;100.00;99215.31;5066083;28;20042;-72
2021/12/28 10:33:09;;;;;;;60.88;8.35;;;;;;;9.61;100.00;99231.63;5097529;27;20129;-72
2021/12/28 10:35:43;;;;;;;62.88;8.43;;;;;;;9.63;100.00;99231.28;5070169;27;20057;-72
2021/12/28 10:38:10;;;;;;;65.38;8.05;;;;;;;9.63;100.00;99226.56;5086018;28;20031;-72
2021/12/28 10:40:37;;;;;;;64.65;9.50;;;;;;;9.66;100.00;99238.97;5110369;28;20463;-72
2021/12/28 10:43:06;;;;;;;62.80;8.85;;;;;;;9.67;100.00;99237.00;5094295;28;20032;-72
2021/12/28 10:45:36;;;;;;;58.78;8.48;;;;;;;9.69;100.00;99234.75;5113444;28;20442;-72
2021/12/28 10:48:25;;;;;;;69.70;9.13;;;;;;;9.73;100.00;99231.03;5065154;28;20046;-72
2021/12/28 10:51:01;;;;;;;54.17;8.75;;;;;;;9.76;100.00;99235.13;5074268;28;20151;-72
2021/12/28 10:53:39;;;;;;;55.75;8.18;;;;;;;9.79;100.00;99235.28;5079067;28;20047;-72
2021/12/28 10:56:06;;;;;;;59.63;9.48;;;;;;;9.82;100.00;99226.31;5087428;28;20929;-72
2021/12/28 10:58:42;;;;;;;59.80;8.45;;;;;;;9.87;100.00;99232.88;5076953;28;20030;-72
2021/12/28 11:01:38;;;;;;;55.40;7.68;;;;;;;9.91;100.00;99243.00;5084135;28;20365;-71
2021/12/28 11:04:08;;;;;;;47.92;7.25;;;;;;;9.98;100.00;99245.31;5072672;27;20066;-72
2021/12/28 11:06:35;;;;;;;64.95;8.07;;;;;;;10.00;100.00;99238.31;5050670;28;20502;-72
2021/12/28 11:12:23;;;;;;;61.35;8.48;;;;;;;10.05;100.00;99240.09;5113842;27;20036;-72
2021/12/28 11:14:48;;;;;;;63.88;8.60;;;;;;;10.10;100.00;99248.28;5060772;28;20035;-72
2021/12/28 11:17:14;;;;;;;66.22;8.50;;;;;;;10.10;100.00;99245.50;5036961;28;20470;-72
2021/12/28 11:19:39;;;;;;;58.22;7.55;;;;;;;10.14;100.00;99262.31;5078578;27;20043;-72
2021/12/28 11:22:07;;;;;;;52.55;7.78;;;;;;;10.13;100.00;99260.69;5077147;28;20043;-71
2021/12/28 11:24:35;;;;;;;52.92;8.20;;;;;;;10.14;100.00;99263.16;5078447;28;20032;-72
2021/12/28 11:27:01;;;;;;;70.38;8.60;;;;;;;10.20;100.00;99261.06;5074352;28;20031;-72
2021/12/28 11:29:35;;;;;;;52.97;7.57;;;;;;;10.20;100.00;99267.41;5086924;27;20112;-72
2021/12/28 11:32:05;;;;;;;62.30;8.43;;;;;;;10.24;100.00;99262.84;5089675;28;20109;-72
2021/12/28 11:34:33;;;;;;;61.35;8.13;;;;;;;10.29;100.00;99259.16;5111382;27;20027;-73